Time;durP1;ratioP1;P1;durP2;ratioP2;P2;SDS_P1;SDS_P2;PMS_P1;PMS_P2;Temp;Humidity;BMP_temperature;BMP_pressure;BME280_temperature;BME280_humidity;BME280_pressure;Samples;Min_cycle;Max_cycle;Signal;HPM_P1;HPM_P2
2022/03/22 00:01:39;;;;;;;48.78;35.10;;;9.60;91.30;;;;;;5035129;28;20123;-46
2022/03/22 00:04:06;;;;;;;46.53;35.85;;;9.70;91.50;;;;;;5035314;28;20041;-50
2022/03/22 00:06:33;;;;;;;47.28;35.03;;;9.70;91.40;;;;;;5038895;28;20443;-46
2022/03/22 00:09:00;;;;;;;49.53;37.53;;;9.70;91.50;;;;;;5036327;28;20420;-46
2022/03/22 00:11:27;;;;;;;50.88;36.15;;;9.70;91.50;;;;;;5035012;28;20087;-46
2022/03/22 00:13:54;;;;;;;47.72;36.78;;;9.70;91.40;;;;;;5035120;28;20042;-51
2022/03/22 00:16:20;;;;;;;50.30;36.80;;;9.70;91.40;;;;;;5034208;28;20483;-46
2022/03/22 00:19:07;;;;;;;51.92;37.45;;;9.70;91.50;;;;;;5034735;28;20045;-52
2022/03/22 00:21:35;;;;;;;57.08;38.25;;;9.70;91.50;;;;;;5034905;28;20072;-49
2022/03/22 00:24:02;;;;;;;46.90;38.50;;;9.70;91.60;;;;;;5034725;28;20042;-47
2022/03/22 00:26:28;;;;;;;47.33;37.70;;;9.80;91.70;;;;;;5034017;28;20061;-48
2022/03/22 00:28:55;;;;;;;54.80;38.83;;;9.80;91.70;;;;;;5032321;28;20158;-48
2022/03/22 00:31:27;;;;;;;53.33;37.80;;;9.80;91.70;;;;;;5029504;28;20048;-47
2022/03/22 00:33:54;;;;;;;52.10;39.30;;;9.80;91.70;;;;;;5034648;28;20041;-48
2022/03/22 10:40:16;;;;;;;26.88;17.00;;;14.50;82.60;;;;;;5071083;28;20846;-46
2022/03/22 10:42:43;;;;;;;24.33;16.58;;;14.60;82.60;;;;;;5066548;28;20055;-52
2022/03/22 10:45:09;;;;;;;25.55;16.42;;;14.70;82.50;;;;;;5051009;28;20064;-49
2022/03/22 10:47:36;;;;;;;18.70;13.82;;;14.80;81.70;;;;;;5066305;28;20102;-48
2022/03/22 10:50:05;;;;;;;20.75;15.93;;;14.90;81.30;;;;;;5069832;28;20098;-47
2022/03/22 10:52:31;;;;;;;20.50;15.65;;;15.00;81.30;;;;;;5068860;28;20037;-52
2022/03/22 10:54:59;;;;;;;20.67;15.80;;;15.10;81.50;;;;;;5070001;28;20064;-48
2022/03/22 10:57:37;;;;;;;24.08;17.50;;;15.20;81.30;;;;;;5062054;28;20045;-51
2022/03/22 11:00:04;;;;;;;23.27;17.58;;;15.30;80.30;;;;;;5069670;28;20119;-51
2022/03/22 11:02:33;;;;;;;25.17;15.93;;;15.40;80.00;;;;;;5069273;28;20464;-47
2022/03/22 11:05:03;;;;;;;20.70;14.52;;;15.50;79.50;;;;;;5068831;28;20051;-49
2022/03/22 11:07:30;;;;;;;24.25;15.50;;;15.60;78.90;;;;;;5069226;28;20214;-49
2022/03/22 11:09:57;;;;;;;24.30;16.45;;;15.70;79.40;;;;;;5068837;28;20045;-46
2022/03/22 11:12:26;;;;;;;19.95;15.68;;;15.70;79.30;;;;;;5068808;28;20036;-49
2022/03/22 11:14:53;;;;;;;19.70;13.32;;;15.80;78.70;;;;;;5067514;28;20434;-50
2022/03/22 11:17:21;;;;;;;17.05;13.32;;;15.80;76.60;;;;;;5068872;28;20037;-47
2022/03/22 11:19:49;;;;;;;16.35;12.98;;;15.90;76.70;;;;;;5067030;28;20048;-52
2022/03/22 11:22:16;;;;;;;19.48;12.93;;;16.00;76.50;;;;;;5067351;28;20037;-47
2022/03/22 11:24:43;;;;;;;20.63;12.27;;;16.00;76.00;;;;;;5067066;28;20485;-51
2022/03/22 11:27:10;;;;;;;16.88;13.15;;;16.10;76.10;;;;;;5067001;28;20044;-48
2022/03/22 11:29:36;;;;;;;15.63;12.50;;;16.10;75.40;;;;;;5067042;28;20041;-50
2022/03/22 11:34:49;;;;;;;19.25;12.80;;;16.20;74.50;;;;;;5048530;28;20057;-46
2022/03/22 11:37:16;;;;;;;18.30;12.60;;;16.20;74.70;;;;;;5050127;28;20060;-50
2022/03/22 11:42:28;;;;;;;15.25;12.27;;;16.30;74.50;;;;;;5050007;28;20042;-46
2022/03/22 11:44:56;;;;;;;18.02;13.48;;;16.40;73.70;;;;;;5055882;28;20510;-45
2022/03/22 11:47:22;;;;;;;20.90;14.48;;;16.40;74.20;;;;;;5069075;28;20040;-46
2022/03/22 11:49:49;;;;;;;20.10;14.32;;;16.40;74.90;;;;;;5065431;28;20050;-49
2022/03/22 11:52:16;;;;;;;21.25;15.20;;;16.50;74.10;;;;;;5055621;28;20040;-50
2022/03/22 11:54:43;;;;;;;23.38;15.23;;;16.50;74.30;;;;;;5052658;28;20041;-50
2022/03/22 11:57:10;;;;;;;23.17;15.98;;;16.50;74.20;;;;;;5035364;28;20049;-49
2022/03/22 11:59:37;;;;;;;23.88;15.45;;;16.60;73.50;;;;;;5034209;28;20042;-51
2022/03/22 12:02:03;;;;;;;22.67;14.65;;;16.60;72.80;;;;;;5054139;28;20045;-51
2022/03/22 12:04:30;;;;;;;25.58;15.13;;;16.70;72.60;;;;;;5054334;28;20116;-49
2022/03/22 12:06:57;;;;;;;20.73;13.65;;;16.80;72.10;;;;;;5054264;28;20400;-47
2022/03/22 12:09:24;;;;;;;20.33;12.93;;;16.90;72.00;;;;;;5054285;28;20400;-50
2022/03/22 12:11:51;;;;;;;15.57;12.38;;;16.80;72.80;;;;;;5054269;28;20045;-46
2022/03/22 12:14:17;;;;;;;18.55;12.98;;;16.90;71.60;;;;;;5054573;28;20052;-47
2022/03/22 12:16:44;;;;;;;18.58;13.10;;;17.00;71.80;;;;;;5052946;28;20508;-47
2022/03/22 12:19:11;;;;;;;16.23;12.15;;;17.00;72.40;;;;;;5052619;28;20060;-52
2022/03/22 12:21:38;;;;;;;17.73;12.60;;;17.10;71.90;;;;;;5051076;28;20049;-51
2022/03/22 12:24:05;;;;;;;24.58;12.23;;;17.20;71.30;;;;;;5052777;28;20077;-46
2022/03/22 12:26:31;;;;;;;13.88;11.75;;;17.20;70.40;;;;;;5052742;28;20051;-51
2022/03/22 12:28:58;;;;;;;18.23;12.00;;;17.20;70.60;;;;;;5052807;28;20038;-50
2022/03/22 12:31:25;;;;;;;19.13;14.43;;;17.30;71.60;;;;;;5054372;28;20045;-51
2022/03/22 12:33:52;;;;;;;16.30;13.18;;;17.30;71.90;;;;;;5054675;28;20060;-53
2022/03/22 12:36:19;;;;;;;16.58;12.63;;;17.30;71.10;;;;;;5054598;28;20401;-48
2022/03/22 12:38:45;;;;;;;17.88;12.48;;;17.40;70.00;;;;;;5054488;28;20053;-49
2022/03/22 12:41:12;;;;;;;16.42;13.75;;;17.40;71.10;;;;;;5054812;28;20052;-49
2022/03/22 12:43:45;;;;;;;15.20;12.23;;;17.40;71.90;;;;;;5054617;28;20539;-48
2022/03/22 12:46:12;;;;;;;18.77;13.77;;;17.40;70.60;;;;;;5039763;28;20395;-51
2022/03/22 12:48:39;;;;;;;20.55;14.18;;;17.40;70.80;;;;;;5035096;28;20453;-48
2022/03/22 12:51:05;;;;;;;18.98;12.52;;;17.50;71.00;;;;;;5036908;28;20037;-53
2022/03/22 12:53:32;;;;;;;15.85;11.13;;;17.60;68.70;;;;;;5046238;28;20042;-48
2022/03/22 12:55:59;;;;;;;15.15;11.40;;;17.60;68.40;;;;;;5035414;28;20041;-48
2022/03/22 12:58:26;;;;;;;15.52;11.95;;;17.60;68.40;;;;;;5036890;28;20053;-53
2022/03/22 13:00:53;;;;;;;17.55;13.15;;;17.60;68.10;;;;;;5039422;28;20048;-52
2022/03/22 13:03:20;;;;;;;24.42;21.83;;;17.70;69.30;;;;;;5033411;28;20069;-51
2022/03/22 13:05:47;;;;;;;29.27;25.02;;;17.70;70.00;;;;;;5034928;28;20095;-50
2022/03/22 13:08:15;;;;;;;15.73;12.40;;;17.70;69.20;;;;;;5040849;28;20064;-50
2022/03/22 13:15:01;;;;;;;;;;;17.80;67.60;;;;;;5035275;28;20042;-49
2022/03/22 13:16:14;;;;;;;15.00;10.48;;;17.80;66.50;;;;;;5034793;28;20280;-53
2022/03/22 13:18:41;;;;;;;13.30;9.90;;;17.80;67.60;;;;;;5034318;28;20148;-49
2022/03/22 13:21:09;;;;;;;16.35;11.23;;;17.80;67.10;;;;;;5034330;28;20444;-56
2022/03/22 13:23:36;;;;;;;15.13;10.02;;;17.80;66.80;;;;;;5034188;28;20033;-50
2022/03/22 13:26:06;;;;;;;16.58;9.35;;;17.80;65.60;;;;;;5047586;28;20040;-50
2022/03/22 13:28:36;;;;;;;13.45;10.10;;;17.80;65.70;;;;;;5034666;28;20033;-51
2022/03/22 13:31:03;;;;;;;14.02;10.80;;;17.80;66.60;;;;;;5033515;28;20040;-48
2022/03/22 13:33:30;;;;;;;12.20;10.05;;;17.80;67.70;;;;;;5034236;28;20065;-55
2022/03/22 13:35:56;;;;;;;14.50;9.65;;;17.90;67.90;;;;;;5040748;28;20039;-49
2022/03/22 13:38:23;;;;;;;12.65;9.40;;;17.90;67.50;;;;;;5053405;28;20377;-52
2022/03/22 13:40:53;;;;;;;17.45;9.57;;;17.90;66.90;;;;;;5052175;28;20056;-53
2022/03/22 13:43:22;;;;;;;13.88;9.70;;;17.90;65.70;;;;;;5053720;28;20075;-51
2022/03/22 13:45:49;;;;;;;14.27;9.50;;;17.90;64.50;;;;;;5033935;28;20053;-52
2022/03/22 13:48:16;;;;;;;15.60;9.00;;;18.00;65.10;;;;;;5034213;28;20041;-50
2022/03/22 13:50:43;;;;;;;14.07;10.00;;;18.00;65.40;;;;;;5033806;28;20041;-48
2022/03/22 13:53:11;;;;;;;15.18;9.57;;;18.00;66.30;;;;;;5033969;28;20369;-46
2022/03/22 13:55:38;;;;;;;14.15;9.20;;;17.90;66.30;;;;;;5053425;28;20132;-51
2022/03/22 13:58:05;;;;;;;12.18;9.25;;;17.90;65.60;;;;;;5053294;28;20041;-46
2022/03/22 14:00:47;;;;;;;15.25;9.35;;;18.00;65.00;;;;;;5052629;28;20040;-52
2022/03/22 14:03:14;;;;;;;13.07;8.82;;;17.90;64.80;;;;;;5053240;28;20403;-48
2022/03/22 14:05:41;;;;;;;13.50;9.15;;;18.00;64.90;;;;;;5053001;28;20033;-50
2022/03/22 14:08:08;;;;;;;10.90;9.00;;;18.00;64.20;;;;;;5043505;28;20497;-51
2022/03/22 14:10:35;;;;;;;11.15;8.88;;;18.00;64.80;;;;;;5033810;28;20041;-52
2022/03/22 14:13:02;;;;;;;13.35;9.18;;;18.00;64.90;;;;;;5033554;28;20042;-47
2022/03/22 14:15:29;;;;;;;13.48;8.75;;;18.10;64.30;;;;;;5038940;28;20154;-48
2022/03/22 14:17:58;;;;;;;11.60;8.90;;;18.10;64.60;;;;;;5052798;28;20045;-49
2022/03/22 14:20:25;;;;;;;17.52;9.43;;;18.10;63.40;;;;;;5052602;28;20059;-52
2022/03/22 14:22:51;;;;;;;11.73;8.88;;;18.10;63.80;;;;;;5052739;28;20086;-51
2022/03/22 14:25:18;;;;;;;14.35;8.75;;;18.10;63.10;;;;;;5051525;28;20045;-51
2022/03/22 14:27:45;;;;;;;14.18;8.75;;;18.10;63.30;;;;;;5051833;28;20060;-53
2022/03/22 14:30:15;;;;;;;16.10;8.65;;;18.10;63.70;;;;;;5052614;28;20488;-52
2022/03/22 14:32:44;;;;;;;15.15;9.48;;;18.10;63.10;;;;;;5052641;28;20116;-54
2022/03/22 14:37:56;;;;;;;;;;;18.10;63.20;;;;;;5034140;28;20042;-49
2022/03/22 14:40:23;;;;;;;12.43;8.23;;;18.10;62.60;;;;;;5052369;28;19927;-48
2022/03/22 14:42:51;;;;;;;11.73;9.10;;;18.10;62.90;;;;;;5052536;28;20053;-50
2022/03/22 14:45:21;;;;;;;13.43;8.23;;;18.10;62.10;;;;;;5051732;28;20496;-52
2022/03/22 14:47:49;;;;;;;12.82;7.82;;;18.10;61.20;;;;;;5052457;28;20103;-54
2022/03/22 14:50:15;;;;;;;7.70;6.82;;;18.10;60.80;;;;;;5052426;28;20044;-54
2022/03/22 14:55:28;;;;;;;10.80;8.20;;;18.10;60.30;;;;;;5052517;28;20447;-46
2022/03/22 15:00:40;;;;;;;;;;;18.20;59.40;;;;;;5032607;28;20072;-51
2022/03/22 15:03:07;;;;;;;9.98;7.80;;;18.20;59.90;;;;;;5033555;28;20336;-51
2022/03/22 15:05:38;;;;;;;13.75;7.65;;;18.20;60.40;;;;;;5033530;28;20038;-50
2022/03/22 15:08:06;;;;;;;12.45;7.88;;;18.20;60.30;;;;;;5033494;28;20100;-49
2022/03/22 15:10:32;;;;;;;11.23;7.20;;;18.20;59.50;;;;;;5033124;28;20064;-50
2022/03/22 15:12:59;;;;;;;9.85;6.70;;;18.20;57.80;;;;;;5033571;28;20370;-51
2022/03/22 15:15:26;;;;;;;12.18;7.07;;;18.20;57.60;;;;;;5033414;28;20065;-50
2022/03/22 15:17:53;;;;;;;16.05;7.05;;;18.20;56.90;;;;;;5031992;28;20053;-53
2022/03/22 15:20:20;;;;;;;10.70;7.35;;;18.20;55.90;;;;;;5033153;28;20041;-51
2022/03/22 15:22:47;;;;;;;14.70;7.43;;;18.20;56.70;;;;;;5033220;28;20037;-54
2022/03/22 15:25:15;;;;;;;11.93;8.05;;;18.20;54.60;;;;;;5034015;28;20061;-46
2022/03/22 15:27:43;;;;;;;10.13;6.82;;;18.20;55.70;;;;;;5036883;28;20042;-53
2022/03/22 15:30:10;;;;;;;8.70;7.70;;;18.20;55.50;;;;;;5053983;28;20495;-54
2022/03/22 15:32:37;;;;;;;10.90;7.05;;;18.10;54.80;;;;;;5055892;28;20045;-48
2022/03/22 15:35:03;;;;;;;11.90;7.32;;;18.10;54.30;;;;;;5056154;28;20037;-51
2022/03/22 15:37:30;;;;;;;14.07;8.25;;;18.10;54.60;;;;;;5055743;28;20057;-52
2022/03/22 15:39:57;;;;;;;10.57;7.57;;;18.10;55.20;;;;;;5055295;28;20122;-51
2022/03/22 15:42:25;;;;;;;9.55;6.57;;;18.10;55.20;;;;;;5055671;28;20044;-52
2022/03/22 15:44:52;;;;;;;12.93;6.93;;;18.10;52.50;;;;;;5049230;28;20091;-54
2022/03/22 15:47:19;;;;;;;10.68;7.60;;;18.00;52.70;;;;;;5036879;28;20041;-54
2022/03/22 15:49:45;;;;;;;12.98;7.43;;;18.00;53.20;;;;;;5036566;28;20123;-50
2022/03/22 15:52:15;;;;;;;12.25;7.40;;;18.00;53.10;;;;;;5036353;28;20041;-50
2022/03/22 15:54:42;;;;;;;9.40;6.95;;;18.00;53.40;;;;;;5036489;28;20079;-53
2022/03/22 15:57:09;;;;;;;9.60;6.35;;;18.00;53.20;;;;;;5036638;28;20046;-50
2022/03/22 15:59:36;;;;;;;10.63;7.60;;;18.00;53.20;;;;;;5036271;28;20065;-53
2022/03/22 16:02:02;;;;;;;14.40;7.70;;;17.90;53.60;;;;;;5040867;28;20037;-53
2022/03/22 16:04:30;;;;;;;11.50;7.40;;;17.90;54.10;;;;;;5036022;28;20095;-48
2022/03/22 16:06:56;;;;;;;16.08;7.70;;;17.90;53.70;;;;;;5035951;28;20045;-52
2022/03/22 16:09:24;;;;;;;13.48;6.55;;;17.90;54.00;;;;;;5036015;28;20034;-50
2022/03/22 16:11:51;;;;;;;11.75;7.20;;;17.90;53.20;;;;;;5035871;28;20560;-50
2022/03/22 16:14:18;;;;;;;11.77;7.60;;;17.80;53.00;;;;;;5035686;28;20064;-51
2022/03/22 16:16:45;;;;;;;11.80;7.10;;;17.80;53.90;;;;;;5035584;28;20481;-49
2022/03/22 16:19:12;;;;;;;8.10;6.68;;;17.70;54.40;;;;;;5034580;28;20037;-53
2022/03/22 16:21:38;;;;;;;12.85;7.20;;;17.70;55.20;;;;;;5035518;28;20056;-50
2022/03/22 16:24:05;;;;;;;10.55;7.35;;;17.70;54.50;;;;;;5035503;28;20045;-50
2022/03/22 16:26:32;;;;;;;8.85;6.88;;;17.60;54.50;;;;;;5035278;28;20051;-54
2022/03/22 16:28:59;;;;;;;12.60;7.28;;;17.60;54.70;;;;;;5035958;28;20128;-55
2022/03/22 16:31:27;;;;;;;10.30;6.85;;;17.60;54.00;;;;;;5035515;28;20046;-50
2022/03/22 16:36:47;;;;;;;11.65;7.70;;;17.60;53.30;;;;;;5035337;28;20037;-53
2022/03/22 16:39:26;;;;;;;12.20;8.20;;;17.50;53.80;;;;;;5035008;28;20393;-53
2022/03/22 16:41:57;;;;;;;11.02;7.05;;;17.50;52.80;;;;;;5035286;28;20049;-51
2022/03/22 16:44:23;;;;;;;12.02;6.53;;;17.50;53.30;;;;;;5034990;28;20080;-53
2022/03/22 16:46:50;;;;;;;10.63;6.65;;;17.50;53.00;;;;;;5034955;28;20400;-52
2022/03/22 16:49:18;;;;;;;13.60;7.07;;;17.40;52.90;;;;;;5034902;28;20080;-54
2022/03/22 16:51:45;;;;;;;13.70;7.60;;;17.40;53.70;;;;;;5034979;28;20037;-55
2022/03/22 16:54:12;;;;;;;12.60;7.45;;;17.40;53.90;;;;;;5034849;28;20099;-53
2022/03/22 16:56:38;;;;;;;12.27;8.50;;;17.40;53.80;;;;;;5034726;28;20038;-53
2022/03/22 16:59:06;;;;;;;15.10;7.60;;;17.40;53.90;;;;;;5033864;28;20389;-50
2022/03/22 17:01:32;;;;;;;11.32;7.20;;;17.50;53.00;;;;;;5037208;28;20404;-50
2022/03/22 17:03:59;;;;;;;12.45;7.90;;;17.60;52.20;;;;;;5035072;28;20114;-53
2022/03/22 17:06:26;;;;;;;10.10;6.95;;;17.70;52.10;;;;;;5034961;28;20069;-55
2022/03/22 17:08:53;;;;;;;12.40;7.13;;;17.70;51.60;;;;;;5038747;28;20060;-48
2022/03/22 17:11:22;;;;;;;9.63;6.65;;;17.80;51.30;;;;;;5037768;28;20504;-46
2022/03/22 17:13:49;;;;;;;13.50;7.15;;;17.70;50.60;;;;;;5034808;28;20476;-53
2022/03/22 17:16:17;;;;;;;10.00;7.18;;;17.70;50.10;;;;;;5034398;28;20045;-48
2022/03/22 17:18:43;;;;;;;14.27;7.43;;;17.60;50.40;;;;;;5034752;28;20381;-49
2022/03/22 17:21:10;;;;;;;12.63;7.53;;;17.40;50.90;;;;;;5034227;28;20041;-50
2022/03/22 17:23:37;;;;;;;11.70;6.82;;;17.30;50.70;;;;;;5034386;28;20045;-47
2022/03/22 17:26:06;;;;;;;11.00;7.10;;;17.30;51.80;;;;;;5034166;28;20042;-47
2022/03/22 17:28:33;;;;;;;10.18;6.68;;;17.30;52.10;;;;;;5037732;28;20029;-50
2022/03/22 17:30:59;;;;;;;11.60;7.10;;;17.20;51.60;;;;;;5053697;28;20060;-49
2022/03/22 17:33:31;;;;;;;12.02;6.78;;;17.10;50.90;;;;;;5053600;28;20051;-48
2022/03/22 17:35:57;;;;;;;10.52;6.65;;;17.00;51.10;;;;;;5052273;28;20041;-51
2022/03/22 17:38:24;;;;;;;16.67;7.10;;;16.90;51.40;;;;;;5053058;28;20053;-51
2022/03/22 17:40:51;;;;;;;10.88;7.10;;;16.80;51.80;;;;;;5052073;28;20128;-48
2022/03/22 17:43:19;;;;;;;15.82;7.72;;;16.70;51.90;;;;;;5053283;28;20037;-51
2022/03/22 17:45:45;;;;;;;20.48;8.05;;;16.60;52.30;;;;;;5053471;28;20449;-51
2022/03/22 17:48:12;;;;;;;10.38;7.80;;;16.40;52.90;;;;;;5052452;28;20504;-47
2022/03/22 17:50:39;;;;;;;9.85;7.10;;;16.40;53.50;;;;;;5051035;28;20148;-47
2022/03/22 17:53:06;;;;;;;13.25;7.32;;;16.30;53.90;;;;;;5051034;28;20056;-50
2022/03/22 17:55:32;;;;;;;11.15;8.07;;;16.20;54.40;;;;;;5051777;28;20048;-50
2022/03/22 17:58:00;;;;;;;15.32;7.60;;;16.00;54.40;;;;;;5051759;28;20303;-46
2022/03/22 18:00:27;;;;;;;12.68;7.68;;;15.90;54.90;;;;;;5050144;28;20033;-46
2022/03/22 18:02:54;;;;;;;11.00;7.57;;;15.80;56.10;;;;;;5050240;28;20037;-53
2022/03/22 18:05:21;;;;;;;11.57;7.05;;;15.70;55.70;;;;;;5052769;28;20095;-50
2022/03/22 18:07:48;;;;;;;12.20;7.22;;;15.60;56.00;;;;;;5052924;28;20049;-48
2022/03/22 18:10:15;;;;;;;11.52;7.50;;;15.50;56.50;;;;;;5052863;28;20092;-49
2022/03/22 18:12:42;;;;;;;16.88;7.93;;;15.40;56.50;;;;;;5052984;28;20061;-52
2022/03/22 18:15:10;;;;;;;14.57;7.55;;;15.30;57.70;;;;;;5051658;28;20103;-49
2022/03/22 18:17:36;;;;;;;14.07;8.00;;;15.20;57.40;;;;;;5053184;28;20052;-44
2022/03/22 18:20:03;;;;;;;14.13;8.15;;;15.10;58.20;;;;;;5052642;28;20040;-46
2022/03/22 18:22:34;;;;;;;11.48;7.75;;;15.00;58.70;;;;;;5052668;28;20052;-51
2022/03/22 18:25:01;;;;;;;13.27;7.80;;;14.90;59.70;;;;;;5052828;28;20124;-48
2022/03/22 18:27:28;;;;;;;19.88;7.82;;;14.80;59.90;;;;;;5052704;28;20041;-46
2022/03/22 18:29:54;;;;;;;12.77;8.07;;;14.70;59.90;;;;;;5052622;28;20044;-48
2022/03/22 18:32:21;;;;;;;12.00;8.02;;;14.60;61.00;;;;;;5052738;28;20053;-52
2022/03/22 18:34:48;;;;;;;14.43;8.48;;;14.50;61.60;;;;;;5052528;28;20036;-55
2022/03/22 18:37:15;;;;;;;18.30;8.10;;;14.40;62.60;;;;;;5052679;28;20041;-53
2022/03/22 18:39:41;;;;;;;13.13;8.38;;;14.40;63.10;;;;;;5052379;28;20083;-47
2022/03/22 18:42:08;;;;;;;17.50;9.25;;;14.30;63.40;;;;;;5051424;28;20068;-46
2022/03/22 18:44:35;;;;;;;17.65;9.02;;;14.20;63.40;;;;;;5052631;28;20037;-48
2022/03/22 18:47:02;;;;;;;17.52;9.60;;;14.20;63.70;;;;;;5052757;28;20159;-48
2022/03/22 18:49:29;;;;;;;15.80;10.10;;;14.10;63.80;;;;;;5052055;28;20037;-50
2022/03/22 18:51:56;;;;;;;13.57;8.70;;;14.00;64.70;;;;;;5052525;28;20381;-44
2022/03/22 18:54:22;;;;;;;16.02;9.32;;;14.00;65.50;;;;;;5051013;28;20492;-51
2022/03/22 18:56:49;;;;;;;13.90;9.20;;;13.90;65.40;;;;;;5052401;28;20076;-46
2022/03/22 18:59:17;;;;;;;15.45;9.52;;;13.80;65.10;;;;;;5052501;28;20048;-47
2022/03/22 19:01:44;;;;;;;16.95;9.10;;;13.80;65.50;;;;;;5055583;28;20091;-48
2022/03/22 19:04:11;;;;;;;17.05;8.48;;;13.70;65.90;;;;;;5055364;28;20055;-49
2022/03/22 19:06:37;;;;;;;14.63;9.10;;;13.60;66.30;;;;;;5056347;28;20045;-49
2022/03/22 19:09:04;;;;;;;12.95;9.25;;;13.60;67.20;;;;;;5056351;28;20040;-56
2022/03/22 19:11:31;;;;;;;16.83;11.05;;;13.50;66.90;;;;;;5056324;28;20063;-49
2022/03/22 19:13:58;;;;;;;16.83;12.13;;;13.40;67.60;;;;;;5056190;28;20041;-49
2022/03/22 19:19:10;;;;;;;20.13;11.55;;;13.30;67.60;;;;;;5056065;28;20041;-51
2022/03/22 19:21:37;;;;;;;20.30;12.40;;;13.30;68.10;;;;;;5056034;28;20139;-51
2022/03/22 19:24:04;;;;;;;18.40;12.20;;;13.20;68.30;;;;;;5056142;28;20052;-47
2022/03/22 19:26:33;;;;;;;18.73;11.40;;;13.20;69.10;;;;;;5056077;28;20122;-47
2022/03/22 19:28:59;;;;;;;16.45;11.57;;;13.10;69.40;;;;;;5054665;28;20049;-47
2022/03/22 19:34:12;;;;;;;18.30;11.57;;;13.00;69.70;;;;;;5055887;28;20080;-48
2022/03/22 19:36:39;;;;;;;18.52;11.73;;;12.90;69.90;;;;;;5055854;28;20044;-53
2022/03/22 19:39:06;;;;;;;23.88;14.27;;;12.90;70.20;;;;;;5055497;28;20084;-52
2022/03/22 19:41:33;;;;;;;31.55;22.67;;;12.90;70.50;;;;;;5055576;28;20439;-47
2022/03/22 19:44:01;;;;;;;36.35;23.70;;;12.80;70.70;;;;;;5055729;28;20045;-47
2022/03/22 19:46:30;;;;;;;37.72;25.77;;;12.80;71.50;;;;;;5055700;28;20033;-51
2022/03/22 19:48:57;;;;;;;32.50;19.38;;;12.70;71.60;;;;;;5055636;28;20068;-49
2022/03/22 19:51:23;;;;;;;23.80;16.38;;;12.60;71.80;;;;;;5055558;28;20052;-48
2022/03/22 19:53:50;;;;;;;26.90;15.65;;;12.60;72.40;;;;;;5055442;28;20050;-46
2022/03/22 19:56:17;;;;;;;21.60;14.35;;;12.50;72.60;;;;;;5055256;28;20439;-47
2022/03/22 19:58:46;;;;;;;28.58;16.02;;;12.50;73.50;;;;;;5055432;28;20048;-48
2022/03/22 20:01:15;;;;;;;23.10;16.25;;;12.50;74.30;;;;;;5055166;28;20049;-46
2022/03/22 20:03:42;;;;;;;21.50;15.68;;;12.40;75.50;;;;;;5054186;28;20496;-54
2022/03/22 20:06:29;;;;;;;25.33;16.23;;;12.40;76.60;;;;;;5055063;28;20033;-50
2022/03/22 20:08:57;;;;;;;28.33;17.40;;;12.30;77.30;;;;;;5055260;28;20557;-51
2022/03/22 20:11:23;;;;;;;26.40;18.20;;;12.30;78.40;;;;;;5054480;28;20087;-45
2022/03/22 20:13:50;;;;;;;28.02;17.98;;;12.30;79.70;;;;;;5054995;28;20041;-45
2022/03/22 20:16:17;;;;;;;32.55;20.52;;;12.30;80.30;;;;;;5055053;28;20044;-46
2022/03/22 20:18:44;;;;;;;33.42;19.70;;;12.20;81.30;;;;;;5053742;28;20163;-48
2022/03/22 20:21:15;;;;;;;32.30;20.95;;;12.20;83.50;;;;;;5054666;28;20041;-46
2022/03/22 20:23:42;;;;;;;29.58;21.10;;;12.10;83.80;;;;;;5055016;28;20045;-50
2022/03/22 20:26:09;;;;;;;36.13;22.08;;;12.10;84.40;;;;;;5054947;28;20032;-49
2022/03/22 20:28:35;;;;;;;30.95;23.25;;;12.00;85.20;;;;;;5054828;28;20511;-49
2022/03/22 20:31:02;;;;;;;31.48;23.33;;;12.00;85.50;;;;;;5054752;28;20045;-51
2022/03/22 20:33:31;;;;;;;30.40;23.20;;;11.90;86.70;;;;;;5054685;28;20076;-54
2022/03/22 20:35:57;;;;;;;34.03;24.10;;;11.90;86.50;;;;;;5054887;28;20396;-49
2022/03/22 20:38:24;;;;;;;33.47;23.80;;;11.90;87.20;;;;;;5054653;28;20085;-48
2022/03/22 20:40:51;;;;;;;38.40;23.83;;;11.80;87.60;;;;;;5053588;28;20055;-48
2022/03/22 20:43:18;;;;;;;35.53;25.90;;;11.80;87.90;;;;;;5054526;28;20106;-50
2022/03/22 20:45:45;;;;;;;37.53;25.50;;;11.80;88.70;;;;;;5054525;28;20037;-52
2022/03/22 20:48:12;;;;;;;35.47;26.00;;;11.70;89.30;;;;;;5054249;28;20068;-50
2022/03/22 20:50:38;;;;;;;35.88;25.60;;;11.70;89.70;;;;;;5054266;28;20044;-51
2022/03/22 20:53:05;;;;;;;35.63;26.27;;;11.70;89.90;;;;;;5054304;28;20170;-51
2022/03/22 20:55:32;;;;;;;39.35;28.25;;;11.60;90.10;;;;;;5054325;28;20052;-44
2022/03/22 21:00:44;;;;;;;43.05;27.95;;;11.60;90.40;;;;;;5054022;28;20036;-53
2022/03/22 21:03:14;;;;;;;46.42;28.10;;;11.50;90.50;;;;;;5053031;28;20103;-48
2022/03/22 21:05:43;;;;;;;40.40;27.88;;;11.50;90.60;;;;;;5054065;28;20575;-52
2022/03/22 21:08:09;;;;;;;46.15;31.25;;;11.50;90.70;;;;;;5054161;28;20037;-53
2022/03/22 21:10:36;;;;;;;43.45;29.55;;;11.40;91.00;;;;;;5054043;28;20076;-50
2022/03/22 21:13:03;;;;;;;42.65;29.90;;;11.40;91.10;;;;;;5053957;28;20045;-43
2022/03/22 21:15:30;;;;;;;41.53;30.10;;;11.30;91.20;;;;;;5053800;28;20044;-48
2022/03/22 21:17:56;;;;;;;46.20;30.00;;;11.30;91.50;;;;;;5053853;28;20045;-48
2022/03/22 21:20:25;;;;;;;44.25;31.73;;;11.30;91.50;;;;;;5053757;28;20049;-43
2022/03/22 21:22:52;;;;;;;37.90;30.17;;;11.20;91.60;;;;;;5052796;28;20041;-50
2022/03/22 21:25:18;;;;;;;43.13;30.00;;;11.20;91.50;;;;;;5053755;28;20083;-49
2022/03/22 21:27:45;;;;;;;45.25;30.85;;;11.10;91.60;;;;;;5053666;28;20429;-50
2022/03/22 21:30:13;;;;;;;43.40;32.22;;;11.10;91.70;;;;;;5053565;28;20045;-52
2022/03/22 21:32:41;;;;;;;42.25;30.55;;;11.10;91.90;;;;;;5053653;28;20488;-47
2022/03/22 21:35:08;;;;;;;40.55;30.55;;;11.10;92.00;;;;;;5053634;28;20047;-50
2022/03/22 21:37:34;;;;;;;47.03;33.03;;;11.00;92.10;;;;;;5053547;28;20076;-50
2022/03/22 21:40:01;;;;;;;52.88;31.63;;;11.00;91.90;;;;;;5052200;28;20190;-51
2022/03/22 21:42:28;;;;;;;44.00;32.63;;;11.00;92.20;;;;;;5052224;28;20072;-48
2022/03/22 21:44:56;;;;;;;48.40;33.75;;;10.90;92.20;;;;;;5053312;28;20044;-50
2022/03/22 21:47:24;;;;;;;52.55;35.55;;;10.90;92.20;;;;;;5053353;28;20500;-46
2022/03/22 21:49:54;;;;;;;47.80;36.53;;;10.90;92.20;;;;;;5053103;28;20055;-46
2022/03/22 21:52:21;;;;;;;56.65;37.60;;;10.90;92.20;;;;;;5053175;28;20095;-46
2022/03/22 21:54:47;;;;;;;58.10;38.15;;;10.80;92.20;;;;;;5053297;28;20048;-54
2022/03/22 21:57:15;;;;;;;52.10;38.17;;;10.80;92.40;;;;;;5053037;28;20492;-50
2022/03/22 21:59:41;;;;;;;50.83;38.53;;;10.70;92.40;;;;;;5053073;28;20080;-49
2022/03/22 22:02:08;;;;;;;55.97;38.88;;;10.70;92.60;;;;;;5053080;28;20412;-51
2022/03/22 22:04:35;;;;;;;53.67;39.30;;;10.60;92.50;;;;;;5051833;28;20431;-54
2022/03/22 22:07:02;;;;;;;59.50;40.30;;;10.60;92.70;;;;;;5053026;28;20514;-48
2022/03/22 22:09:29;;;;;;;61.63;40.80;;;10.50;92.70;;;;;;5052851;28;20053;-53
2022/03/22 22:11:55;;;;;;;53.25;39.42;;;10.50;92.60;;;;;;5052906;28;20626;-50
2022/03/22 22:14:22;;;;;;;57.80;38.08;;;10.50;92.80;;;;;;5052908;28;20045;-52
2022/03/22 22:16:49;;;;;;;51.38;39.10;;;10.40;92.90;;;;;;5052944;28;20044;-49
2022/03/22 22:19:16;;;;;;;55.38;40.40;;;10.40;93.00;;;;;;5052788;28;20040;-51
2022/03/22 22:21:42;;;;;;;54.13;38.17;;;10.40;93.10;;;;;;5052773;28;20436;-48
2022/03/22 22:24:09;;;;;;;50.85;38.55;;;10.30;93.20;;;;;;5052650;28;20037;-48
2022/03/22 22:26:36;;;;;;;53.40;38.88;;;10.30;93.40;;;;;;5052892;28;20037;-47
2022/03/22 22:29:02;;;;;;;54.03;39.72;;;10.20;93.40;;;;;;5052714;28;20040;-48
2022/03/22 22:34:15;;;;;;;51.53;38.28;;;10.20;93.50;;;;;;5052491;28;20446;-49
2022/03/22 22:36:41;;;;;;;53.72;39.08;;;10.10;93.60;;;;;;5052559;28;20447;-48
2022/03/22 22:39:08;;;;;;;59.22;40.17;;;10.10;93.70;;;;;;5052358;28;20488;-45
2022/03/22 22:41:37;;;;;;;57.95;39.95;;;10.10;93.70;;;;;;5052476;28;20060;-48
2022/03/22 22:44:04;;;;;;;61.28;40.40;;;10.00;93.60;;;;;;5052448;28;20120;-50
2022/03/22 22:46:34;;;;;;;59.97;41.28;;;10.00;93.70;;;;;;5052511;28;20128;-53
2022/03/22 22:49:01;;;;;;;53.45;39.15;;;10.00;93.90;;;;;;5052543;28;20128;-49
2022/03/22 22:51:28;;;;;;;55.38;40.13;;;9.90;93.90;;;;;;5050903;28;20041;-43
2022/03/22 22:53:54;;;;;;;59.78;43.00;;;9.90;93.90;;;;;;5051197;28;20048;-47
2022/03/22 22:56:21;;;;;;;55.58;40.08;;;9.80;94.00;;;;;;5052426;28;20045;-47
2022/03/22 22:58:48;;;;;;;57.65;41.47;;;9.80;94.00;;;;;;5052367;28;20045;-45
2022/03/22 23:01:17;;;;;;;61.38;43.08;;;9.80;94.10;;;;;;5052256;28;20041;-44
2022/03/22 23:03:44;;;;;;;59.42;42.55;;;9.70;94.20;;;;;;5052095;28;20522;-48
2022/03/22 23:06:11;;;;;;;62.05;41.88;;;9.70;94.30;;;;;;5052333;28;20041;-47
2022/03/22 23:11:23;;;;;;;58.88;42.45;;;9.60;94.40;;;;;;5052238;28;20547;-49